Aérodrome :
LOGIN :

S'inscrire | Disclaimer

   EN    FR    IT 

 










Légende :    VFR   VFR Marginal   IFR   IFR Intensif   IFR Très Intensif
Visi : 
Plafond : 
>= 8 km
>= 3000ft
5 à 8 km
1000 à 3000 ft
1500m à 5 km
500 à 1000 ft
800 à 1500m
200 à 500 ft
< 800m
< 200 ft
Symboles :   Orages  Brouillard  Fortes neiges  Fortes précipitations  Vent > 20 kt
SIGMETs :   Divers  Orages  Givrage  Turbulence  Onde Orograph.  Cendres Volcan.






- Altitude de l'aérodrome : 1000 ft
- Code IATA : PEV


LHPP - Pécs Pogany

DERNIER METAR :
  • 200445Z AUTO 34012KT 7000 RA FEW026 BKN031 OVC046 //////TCU 10/10 Q1013

METARs EXPIRÉS :
  • 200415Z AUTO 03003KT 360V060 7000 RA OVC022 //////TCU 11/09 Q1013
  • 200401Z AUTO 01003KT 6000 RA //////TCU 11/10 Q1013
  • 200345Z AUTO 02004KT 9000 -RA OVC027 11/10 Q1012
  • 200315Z AUTO 04005KT 9999 OVC030 11/09 Q1012
  • 200245Z AUTO 03006KT 350V060 9999 BKN032 BKN044 OVC062 12/09 Q1012
  • 200215Z AUTO 03005KT 9999 -RA OVC035 12/10 Q1012
  • 200145Z AUTO 03003KT 010V070 9999 -RA OVC037 12/11 Q1012

Prévision TAF périmée.



MET'MAP, la Météo Aéronautique d'un coup d'oeil ! - Copyright ORBIFLY Décembre 2007 - Disclaimer

ORBIFLY MET'MAP TEAM :

Programmation & Développement : Alexandra Zaïnal
Sur une idée originale de : Baudouin d'Aumeries
Assistance à la programmation : Marc-Olivier Méhu
Soutien technique & logistique : Manuel Goepfert

Contact : metmap@orbifly.com




SOURCES & CREDITS :

   NOAA